createdAt,value
2018-03-25T00:00:36.486Z,5.46
2018-03-25T00:01:36.480Z,5.45
2018-03-25T00:02:36.510Z,5.39
2018-03-25T00:03:36.486Z,5.39
2018-03-25T00:04:36.500Z,5.36
2018-03-25T00:05:36.512Z,5.33
2018-03-25T00:06:36.789Z,5.39
2018-03-25T00:07:36.493Z,5.39
2018-03-25T00:08:36.501Z,5.36
2018-03-25T00:09:36.554Z,5.38
2018-03-25T00:10:36.511Z,5.35
2018-03-25T00:11:36.526Z,5.33
2018-03-25T00:12:36.535Z,5.36
2018-03-25T00:13:36.496Z,5.35
2018-03-25T00:14:36.590Z,5.36
2018-03-25T00:15:36.511Z,5.33
2018-03-25T00:16:36.547Z,5.32
2018-03-25T00:17:36.515Z,5.3
2018-03-25T00:18:36.520Z,5.33
2018-03-25T00:19:36.537Z,5.32
2018-03-25T00:20:36.528Z,5.29
2018-03-25T00:21:36.553Z,5.28
2018-03-25T00:22:36.533Z,5.3
2018-03-25T00:23:36.581Z,5.3
2018-03-25T00:24:36.554Z,5.3
2018-03-25T00:25:36.542Z,5.29
2018-03-25T00:26:36.570Z,5.26
2018-03-25T00:27:36.546Z,5.25
2018-03-25T00:28:36.547Z,5.22
2018-03-25T00:29:36.545Z,5.21
2018-03-25T00:30:36.562Z,5.16
2018-03-25T00:31:36.559Z,5.1
2018-03-25T00:32:36.561Z,5.02
2018-03-25T00:33:36.556Z,4.81
2018-03-25T00:34:36.564Z,4.79
2018-03-25T00:35:36.609Z,4.74
2018-03-25T00:36:36.582Z,4.7
2018-03-25T00:37:36.609Z,4.59
2018-03-25T00:38:36.589Z,4.55
2018-03-25T00:39:36.591Z,4.53
2018-03-25T00:40:36.607Z,4.26
2018-03-25T00:41:36.603Z,4.24
2018-03-25T00:42:36.632Z,4.33
2018-03-25T00:43:36.617Z,4.38
2018-03-25T00:44:36.642Z,4.42
2018-03-25T00:45:36.651Z,4.43
2018-03-25T00:46:36.637Z,4.45
2018-03-25T00:47:36.625Z,4.45
2018-03-25T00:48:36.639Z,4.4
2018-03-25T00:49:36.630Z,4.42
2018-03-25T00:50:36.658Z,4.38
2018-03-25T00:51:36.653Z,4.4
2018-03-25T00:52:36.640Z,4.42
2018-03-25T00:53:36.673Z,4.32
2018-03-25T00:54:36.656Z,4.28
2018-03-25T00:55:36.660Z,4.26
2018-03-25T00:56:36.928Z,4.14
2018-03-25T00:57:36.646Z,4.07
2018-03-25T00:58:36.658Z,4.05
2018-03-25T00:59:36.648Z,4.08
2018-03-25T01:00:36.660Z,4.05
2018-03-25T01:01:36.681Z,3.97
2018-03-25T01:02:36.660Z,4.02
2018-03-25T01:03:36.681Z,4
2018-03-25T01:04:36.675Z,3.97
2018-03-25T01:05:36.676Z,3.73
2018-03-25T01:06:36.692Z,3.77
2018-03-25T01:07:36.788Z,3.83
2018-03-25T01:08:36.682Z,3.87
2018-03-25T01:09:36.678Z,3.87
2018-03-25T01:10:36.690Z,3.9
2018-03-25T01:11:36.692Z,3.9
2018-03-25T01:14:42.931Z,3.8
2018-03-25T01:15:36.720Z,3.83
2018-03-25T01:16:36.704Z,3.84
2018-03-25T01:17:36.764Z,3.84
2018-03-25T01:18:37.008Z,3.8
2018-03-25T01:19:36.752Z,3.77
2018-03-25T01:20:36.731Z,3.77
2018-03-25T01:21:36.786Z,3.77
2018-03-25T01:22:36.746Z,3.76
2018-03-25T01:23:36.774Z,3.76
2018-03-25T01:24:36.736Z,3.77
2018-03-25T01:25:36.743Z,3.76
2018-03-25T01:26:36.742Z,3.74
2018-03-25T01:27:36.774Z,3.74
2018-03-25T01:28:36.865Z,3.76
2018-03-25T01:29:36.826Z,3.74
2018-03-25T01:30:36.810Z,3.73
2018-03-25T01:31:36.778Z,3.74
2018-03-25T01:32:36.930Z,3.73
2018-03-25T01:33:36.813Z,3.72
2018-03-25T01:34:36.848Z,3.72
2018-03-25T01:35:36.777Z,3.69
2018-03-25T01:36:36.783Z,3.62
2018-03-25T01:37:36.805Z,3.41
2018-03-25T01:38:36.919Z,3.44
2018-03-25T01:39:36.787Z,3.46
2018-03-25T01:40:36.806Z,3.46
2018-03-25T01:41:36.797Z,3.52
2018-03-25T01:42:36.792Z,3.51
2018-03-25T01:43:36.810Z,3.52
2018-03-25T01:44:36.792Z,3.51
2018-03-25T01:45:36.802Z,3.51
2018-03-25T01:46:36.832Z,3.49
2018-03-25T01:47:36.836Z,3.49
2018-03-25T01:48:36.854Z,3.49
2018-03-25T01:49:36.825Z,3.46
2018-03-25T01:50:36.832Z,3.45
2018-03-25T01:51:36.858Z,3.41
2018-03-25T01:52:36.818Z,3.39
2018-03-25T01:53:36.821Z,3.38
2018-03-25T01:54:36.845Z,3.35
2018-03-25T01:55:36.825Z,3.24
2018-03-25T01:56:36.844Z,3.29
2018-03-25T01:57:36.853Z,3.24
2018-03-25T01:58:36.868Z,3.28
2018-03-25T01:59:36.839Z,3.28
2018-03-25T02:00:36.835Z,3.29
2018-03-25T02:01:36.885Z,3.32
2018-03-25T02:02:36.846Z,3.28
2018-03-25T02:03:36.867Z,3.29
2018-03-25T02:04:36.849Z,3.25
2018-03-25T02:05:36.841Z,2.99
2018-03-25T02:06:36.857Z,3.08
2018-03-25T02:07:36.860Z,3.12
2018-03-25T02:08:36.901Z,3.11
2018-03-25T02:09:36.873Z,3.11
2018-03-25T02:10:36.876Z,3.1
2018-03-25T02:11:36.886Z,3.11
2018-03-25T02:12:36.910Z,3.11
2018-03-25T02:13:37.185Z,3.11
2018-03-25T02:14:36.900Z,3.12
2018-03-25T02:15:36.897Z,3.1
2018-03-25T02:16:36.917Z,3.07
2018-03-25T02:17:36.907Z,2.99
2018-03-25T02:18:36.924Z,2.9
2018-03-25T02:19:36.911Z,2.79
2018-03-25T02:20:36.904Z,2.72
2018-03-25T02:21:36.904Z,2.79
2018-03-25T02:22:36.935Z,2.83
2018-03-25T02:23:36.907Z,2.82
2018-03-25T02:24:36.915Z,2.82
2018-03-25T02:25:36.922Z,2.82
2018-03-25T02:26:36.936Z,2.79
2018-03-25T02:27:36.947Z,2.83
2018-03-25T02:28:36.937Z,2.72
2018-03-25T02:29:36.930Z,2.68
2018-03-25T02:30:36.942Z,2.71
2018-03-25T02:31:36.948Z,2.71
2018-03-25T02:32:36.996Z,2.68
2018-03-25T02:33:36.991Z,2.69
2018-03-25T02:34:36.972Z,2.65
2018-03-25T02:35:36.968Z,2.71
2018-03-25T02:36:36.969Z,2.68
2018-03-25T02:37:36.979Z,2.71
2018-03-25T02:38:37.249Z,2.44
2018-03-25T02:39:36.986Z,2.4
2018-03-25T02:40:37.015Z,2.49
2018-03-25T02:41:37.001Z,2.34
2018-03-25T02:42:36.991Z,2.31
2018-03-25T02:43:37.027Z,2.37
2018-03-25T02:44:36.997Z,2.37
2018-03-25T02:45:36.982Z,2.3
2018-03-25T02:46:37.005Z,2.34
2018-03-25T02:47:36.999Z,2.36
2018-03-25T02:48:37.001Z,2.38
2018-03-25T02:49:37.130Z,2.4
2018-03-25T02:50:37.015Z,2.41
2018-03-25T02:51:37.024Z,2.44
2018-03-25T02:52:37.021Z,2.43
2018-03-25T02:53:37.032Z,2.33
2018-03-25T02:54:37.071Z,2
2018-03-25T02:55:37.054Z,2.01
2018-03-25T02:56:37.060Z,2.11
2018-03-25T02:57:37.064Z,2.06
2018-03-25T02:58:37.049Z,2.06
2018-03-25T02:59:37.055Z,2.07
2018-03-25T03:00:37.080Z,2.13
2018-03-25T03:01:37.077Z,2.16
2018-03-25T03:02:37.233Z,2.14
2018-03-25T03:03:37.086Z,2.21
2018-03-25T03:04:37.081Z,2.22
2018-03-25T03:05:37.326Z,2.21
2018-03-25T03:06:37.104Z,2.22
2018-03-25T03:07:37.077Z,2.18
2018-03-25T03:08:37.098Z,2.16
2018-03-25T03:09:37.090Z,2.17
2018-03-25T03:10:37.110Z,2.2
2018-03-25T03:11:37.104Z,2.2
2018-03-25T03:12:37.078Z,2.22
2018-03-25T03:13:37.131Z,2.2
2018-03-25T03:14:37.095Z,2.2
2018-03-25T03:15:37.144Z,2.21
2018-03-25T03:16:37.102Z,2.2
2018-03-25T03:17:37.096Z,2.2
2018-03-25T03:18:37.390Z,2.2
2018-03-25T03:19:37.131Z,2.21
2018-03-25T03:20:37.117Z,2.26
2018-03-25T03:21:37.116Z,2.26
2018-03-25T03:22:37.135Z,2.24
2018-03-25T03:23:37.288Z,2.18
2018-03-25T03:24:37.139Z,2.01
2018-03-25T03:25:37.134Z,2.1
2018-03-25T03:26:37.147Z,2.13
2018-03-25T03:27:37.142Z,2.14
2018-03-25T03:28:37.155Z,2.14
2018-03-25T03:29:37.203Z,2.14
2018-03-25T03:30:37.151Z,2.16
2018-03-25T03:31:37.171Z,2.11
2018-03-25T03:32:37.146Z,2.13
2018-03-25T03:33:37.187Z,2.13
2018-03-25T03:34:37.155Z,2.14
2018-03-25T03:35:37.167Z,2.11
2018-03-25T03:36:37.168Z,2.11
2018-03-25T03:37:37.168Z,2.13
2018-03-25T03:38:37.202Z,2.13
2018-03-25T03:39:37.193Z,2
2018-03-25T03:40:37.202Z,2.01
2018-03-25T03:41:37.188Z,2.04
2018-03-25T03:42:37.195Z,2.06
2018-03-25T03:43:37.266Z,2.07
2018-03-25T03:44:37.209Z,2.07
2018-03-25T03:45:37.202Z,2.06
2018-03-25T03:46:37.274Z,2.04
2018-03-25T03:47:37.228Z,2.07
2018-03-25T03:48:37.230Z,2.07
2018-03-25T03:49:37.351Z,2
2018-03-25T03:50:37.217Z,1.76
2018-03-25T03:51:37.225Z,1.86
2018-03-25T03:52:37.241Z,1.87
2018-03-25T03:53:37.248Z,1.89
2018-03-25T03:54:37.349Z,1.89
2018-03-25T03:55:37.257Z,1.92
2018-03-25T03:56:37.251Z,1.93
2018-03-25T03:57:37.243Z,1.89
2018-03-25T03:58:37.245Z,1.9
2018-03-25T03:59:37.285Z,1.73
2018-03-25T04:00:37.254Z,1.79
2018-03-25T04:01:37.286Z,1.83
2018-03-25T04:02:37.270Z,1.69
2018-03-25T04:03:37.257Z,1.55
2018-03-25T04:04:37.281Z,1.61
2018-03-25T04:05:37.268Z,1.68
2018-03-25T04:06:37.275Z,1.66
2018-03-25T04:07:37.321Z,1.68
2018-03-25T04:08:37.299Z,1.68
2018-03-25T04:09:37.289Z,1.71
2018-03-25T04:10:37.324Z,1.73
2018-03-25T04:11:37.304Z,1.71
2018-03-25T04:12:37.301Z,1.68
2018-03-25T04:13:37.318Z,1.69
2018-03-25T04:14:37.317Z,1.65
2018-03-25T04:15:37.471Z,1.62
2018-03-25T04:16:37.319Z,1.61
2018-03-25T04:17:37.315Z,1.62
2018-03-25T04:18:37.324Z,1.62
2018-03-25T04:19:37.325Z,1.65
2018-03-25T04:20:37.348Z,1.64
2018-03-25T04:21:37.334Z,1.66
2018-03-25T04:22:37.361Z,1.64
2018-03-25T04:23:37.340Z,1.59
2018-03-25T04:24:37.341Z,1.64
2018-03-25T04:25:37.333Z,1.64
2018-03-25T04:26:37.369Z,1.62
2018-03-25T04:27:37.338Z,1.59
2018-03-25T04:28:37.349Z,1.57
2018-03-25T04:29:37.381Z,1.54
2018-03-25T04:30:37.367Z,1.55
2018-03-25T04:31:37.387Z,1.58
2018-03-25T04:32:37.373Z,1.61
2018-03-25T04:33:37.381Z,1.58
2018-03-25T04:34:37.392Z,1.61
2018-03-25T04:35:37.379Z,1.59
2018-03-25T04:36:37.423Z,1.58
2018-03-25T04:37:37.378Z,1.55
2018-03-25T04:38:37.385Z,1.58
2018-03-25T04:39:37.407Z,1.57
2018-03-25T04:40:37.423Z,1.53
2018-03-25T04:41:37.406Z,1.53
2018-03-25T04:42:37.399Z,1.54
2018-03-25T04:43:37.412Z,1.54
2018-03-25T04:44:37.426Z,1.5
2018-03-25T04:45:37.383Z,1.4
2018-03-25T04:46:37.395Z,1.41
2018-03-25T04:47:37.400Z,1.41
2018-03-25T04:48:37.404Z,1.36
2018-03-25T04:49:37.426Z,1.36
2018-03-25T04:50:37.416Z,1.4
2018-03-25T04:51:37.435Z,1.41
2018-03-25T04:52:37.459Z,1.45
2018-03-25T04:53:37.418Z,1.43
2018-03-25T04:54:37.415Z,1.45
2018-03-25T04:55:37.425Z,1.45
2018-03-25T04:56:37.471Z,1.4
2018-03-25T04:57:37.442Z,1.4
2018-03-25T04:58:37.444Z,1.33
2018-03-25T04:59:37.446Z,1.22
2018-03-25T05:00:37.436Z,1.2
2018-03-25T05:01:37.477Z,1.24
2018-03-25T05:02:37.471Z,1.23
2018-03-25T05:03:37.446Z,1.27
2018-03-25T05:04:37.461Z,1.27
2018-03-25T05:05:37.457Z,1.28
2018-03-25T05:06:37.493Z,1.28
2018-03-25T05:07:37.459Z,1.34
2018-03-25T05:08:37.490Z,1.36
2018-03-25T05:09:37.473Z,1.37
2018-03-25T05:10:37.476Z,1.4
2018-03-25T05:11:37.484Z,1.37
2018-03-25T05:12:37.495Z,1.41
2018-03-25T05:13:37.499Z,1.43
2018-03-25T05:14:37.487Z,1.44
2018-03-25T05:15:37.504Z,1.41
2018-03-25T05:16:37.502Z,1.44
2018-03-25T05:17:37.632Z,1.44
2018-03-25T05:18:37.503Z,1.5
2018-03-25T05:19:37.502Z,1.51
2018-03-25T05:20:37.538Z,1.51
2018-03-25T05:21:37.536Z,1.53
2018-03-25T05:22:37.568Z,1.28
2018-03-25T05:23:37.595Z,1.33
2018-03-25T05:24:37.539Z,1.36
2018-03-25T05:25:37.549Z,1.4
2018-03-25T05:26:37.548Z,1.41
2018-03-25T05:27:37.579Z,1.41
2018-03-25T05:28:37.551Z,1.43
2018-03-25T05:29:37.561Z,1.43
2018-03-25T05:30:37.574Z,1.45
2018-03-25T05:31:37.568Z,1.47
2018-03-25T05:32:37.592Z,1.5
2018-03-25T05:33:37.565Z,1.5
2018-03-25T05:34:37.588Z,1.48
2018-03-25T05:35:37.573Z,1.48
2018-03-25T05:36:37.596Z,1.45
2018-03-25T05:37:37.604Z,1.44
2018-03-25T05:38:37.596Z,1.45
2018-03-25T05:39:37.601Z,1.44
2018-03-25T05:40:37.585Z,1.45
2018-03-25T05:41:37.596Z,1.48
2018-03-25T05:42:37.581Z,1.47
2018-03-25T05:43:37.719Z,1.5
2018-03-25T05:44:37.588Z,1.51
2018-03-25T05:45:37.620Z,1.51
2018-03-25T05:46:37.615Z,1.51
2018-03-25T05:47:37.697Z,1.53
2018-03-25T05:48:37.618Z,1.54
2018-03-25T05:49:37.605Z,1.54
2018-03-25T05:50:37.632Z,1.57
2018-03-25T05:51:37.598Z,1.58
2018-03-25T05:52:37.610Z,1.55
2018-03-25T05:53:37.614Z,1.58
2018-03-25T05:54:37.784Z,1.57
2018-03-25T05:55:37.638Z,1.57
2018-03-25T05:56:37.620Z,1.57
2018-03-25T05:57:37.640Z,1.58
2018-03-25T05:58:37.626Z,1.57
2018-03-25T05:59:37.650Z,1.57
2018-03-25T06:00:37.645Z,1.58
2018-03-25T06:01:37.653Z,1.54
2018-03-25T06:02:37.658Z,1.53
2018-03-25T06:03:37.671Z,1.54
2018-03-25T06:04:37.658Z,1.51
2018-03-25T06:05:37.651Z,1.5
2018-03-25T06:06:37.650Z,1.48
2018-03-25T06:07:37.678Z,1.48
2018-03-25T06:08:37.669Z,1.48
2018-03-25T06:09:37.662Z,1.51
2018-03-25T06:10:37.690Z,1.53
2018-03-25T06:11:37.685Z,1.54
2018-03-25T06:12:37.682Z,1.54
2018-03-25T06:13:37.670Z,1.57
2018-03-25T06:14:37.800Z,1.58
2018-03-25T06:15:37.726Z,1.57
2018-03-25T06:16:37.684Z,1.55
2018-03-25T06:17:37.683Z,1.55
2018-03-25T06:18:37.684Z,1.55
2018-03-25T06:19:37.702Z,1.57
2018-03-25T06:20:37.680Z,1.55
2018-03-25T06:21:37.687Z,1.57
2018-03-25T06:22:37.702Z,1.57
2018-03-25T06:23:37.707Z,1.54
2018-03-25T06:24:37.740Z,1.47
2018-03-25T06:25:37.739Z,1.51
2018-03-25T06:26:37.721Z,1.57
2018-03-25T06:27:37.771Z,1.58
2018-03-25T06:28:37.717Z,1.59
2018-03-25T06:29:37.763Z,1.61
2018-03-25T06:30:37.733Z,1.65
2018-03-25T06:31:37.784Z,1.66
2018-03-25T06:32:37.764Z,1.69
2018-03-25T06:33:37.827Z,1.68
2018-03-25T06:34:37.739Z,1.71
2018-03-25T06:35:37.740Z,1.73
2018-03-25T06:36:37.747Z,1.78
2018-03-25T06:37:37.741Z,1.79
2018-03-25T06:38:37.756Z,1.83
2018-03-25T06:39:37.774Z,1.85
2018-03-25T06:40:38.039Z,1.89
2018-03-25T06:41:37.802Z,1.9
2018-03-25T06:42:37.764Z,1.9
2018-03-25T06:43:37.757Z,1.92
2018-03-25T06:44:37.770Z,1.92
2018-03-25T06:45:37.796Z,1.94
2018-03-25T06:46:37.777Z,1.97
2018-03-25T06:47:37.789Z,1.96
2018-03-25T06:48:37.878Z,1.99
2018-03-25T06:49:37.784Z,2.01
2018-03-25T06:50:37.831Z,2.03
2018-03-25T06:51:37.786Z,2.06
2018-03-25T06:52:37.800Z,2.1
2018-03-25T06:53:37.811Z,2.11
2018-03-25T06:54:37.813Z,2.17
2018-03-25T06:55:38.123Z,2.21
2018-03-25T06:56:37.822Z,2.21
2018-03-25T06:57:37.864Z,2.24
2018-03-25T06:58:37.823Z,2.3
2018-03-25T06:59:37.831Z,2.3
2018-03-25T07:00:37.852Z,2.34
2018-03-25T07:01:37.854Z,2.36
2018-03-25T07:02:37.848Z,2.37
2018-03-25T07:03:37.855Z,2.4
2018-03-25T07:04:37.856Z,2.44
2018-03-25T07:05:37.933Z,2.38
2018-03-25T07:06:37.867Z,2.45
2018-03-25T07:07:37.863Z,2.47
2018-03-25T07:08:38.023Z,2.48
2018-03-25T07:09:37.857Z,2.54
2018-03-25T07:10:37.864Z,2.54
2018-03-25T07:11:37.887Z,2.51
2018-03-25T07:12:37.879Z,2.54
2018-03-25T07:13:37.872Z,2.61
2018-03-25T07:14:37.873Z,2.64
2018-03-25T07:15:37.933Z,2.64
2018-03-25T07:16:37.908Z,2.66
2018-03-25T07:17:37.897Z,2.68
2018-03-25T07:18:37.905Z,2.71
2018-03-25T07:19:37.899Z,2.73
2018-03-25T07:20:37.934Z,2.73
2018-03-25T07:21:37.923Z,2.72
2018-03-25T07:22:37.913Z,2.71
2018-03-25T07:23:37.913Z,2.79
2018-03-25T07:24:39.540Z,2.76
2018-03-25T07:25:37.927Z,2.8
2018-03-25T07:26:37.911Z,2.86
2018-03-25T07:27:37.954Z,2.86
2018-03-25T07:28:37.922Z,2.86
2018-03-25T07:29:37.923Z,2.92
2018-03-25T07:30:37.938Z,2.94
2018-03-25T07:31:37.940Z,3
2018-03-25T07:32:37.999Z,3.03
2018-03-25T07:33:37.976Z,3.07
2018-03-25T07:34:37.993Z,3.14
2018-03-25T07:35:38.012Z,3.17
2018-03-25T07:36:38.014Z,3.2
2018-03-25T07:37:38.116Z,3.21
2018-03-25T07:38:37.979Z,3.28
2018-03-25T07:39:37.974Z,3.34
2018-03-25T07:40:38.094Z,3.32
2018-03-25T07:41:38.013Z,3.38
2018-03-25T07:42:38.046Z,3.38
2018-03-25T07:43:37.999Z,3.44
2018-03-25T07:44:37.990Z,3.46
2018-03-25T07:45:37.995Z,3.54
2018-03-25T07:46:38.024Z,3.55
2018-03-25T07:47:38.030Z,3.61
2018-03-25T07:48:38.303Z,3.65
2018-03-25T07:49:37.995Z,3.69
2018-03-25T07:50:38.011Z,3.73
2018-03-25T07:51:38.007Z,3.77
2018-03-25T07:52:38.011Z,3.76
2018-03-25T07:53:38.117Z,3.82
2018-03-25T07:54:38.029Z,3.84
2018-03-25T07:55:38.030Z,3.87
2018-03-25T07:56:38.022Z,3.86
2018-03-25T07:57:38.026Z,3.89
2018-03-25T07:58:38.025Z,3.91
2018-03-25T07:59:38.018Z,3.93
2018-03-25T08:00:38.029Z,3.97
2018-03-25T08:01:38.016Z,4.01
2018-03-25T08:02:38.034Z,4.05
2018-03-25T08:03:38.052Z,4.11
2018-03-25T08:04:38.087Z,4.11
2018-03-25T08:05:38.039Z,4.15
2018-03-25T08:06:38.038Z,4.19
2018-03-25T08:07:38.053Z,4.21
2018-03-25T08:08:38.084Z,4.25
2018-03-25T08:09:38.047Z,4.24
2018-03-25T08:10:38.064Z,4.3
2018-03-25T08:11:38.071Z,4.35
2018-03-25T08:12:38.062Z,4.36
2018-03-25T08:13:38.080Z,4.46
2018-03-25T08:14:38.110Z,4.48
2018-03-25T08:15:38.058Z,4.57
2018-03-25T08:16:38.060Z,4.66
2018-03-25T08:17:38.052Z,4.67
2018-03-25T08:18:38.075Z,4.7
2018-03-25T08:19:38.057Z,4.7
2018-03-25T08:20:38.056Z,4.76
2018-03-25T08:21:38.092Z,4.8
2018-03-25T08:22:38.081Z,4.88
2018-03-25T08:23:38.165Z,4.91
2018-03-25T08:24:38.076Z,5
2018-03-25T08:25:38.115Z,5.05
2018-03-25T08:26:38.090Z,5.11
2018-03-25T08:27:38.111Z,5.14
2018-03-25T08:28:38.123Z,5.18
2018-03-25T08:29:38.112Z,5.21
2018-03-25T08:30:38.095Z,5.23
2018-03-25T08:31:38.112Z,5.33
2018-03-25T08:32:38.109Z,5.36
2018-03-25T08:33:38.374Z,5.39
2018-03-25T08:34:38.124Z,5.46
2018-03-25T08:35:38.145Z,5.49
2018-03-25T08:36:38.157Z,5.54
2018-03-25T08:37:38.159Z,5.62
2018-03-25T08:38:38.195Z,5.62
2018-03-25T08:39:38.187Z,5.57
2018-03-25T08:40:38.180Z,5.57
2018-03-25T08:41:38.174Z,5.75
2018-03-25T08:42:38.164Z,5.71
2018-03-25T08:43:38.190Z,5.75
2018-03-25T08:44:38.180Z,5.83
2018-03-25T08:45:38.175Z,5.81
2018-03-25T08:46:38.338Z,5.9
2018-03-25T08:47:38.198Z,6.04
2018-03-25T08:48:38.208Z,6.12
2018-03-25T08:49:38.183Z,6.22
2018-03-25T08:50:38.184Z,6.22
2018-03-25T08:51:38.190Z,6.25
2018-03-25T08:52:38.199Z,6.32
2018-03-25T08:53:38.256Z,6.37
2018-03-25T08:54:38.228Z,6.39
2018-03-25T08:55:38.336Z,6.41
2018-03-25T08:56:38.244Z,6.5
2018-03-25T08:57:38.218Z,6.54
2018-03-25T08:58:38.225Z,6.56
2018-03-25T08:59:38.238Z,6.57
2018-03-25T09:00:38.238Z,6.64
2018-03-25T09:01:38.240Z,6.64
2018-03-25T09:02:38.233Z,6.64
2018-03-25T09:03:38.249Z,6.68
2018-03-25T09:04:38.251Z,6.68
2018-03-25T09:05:38.328Z,6.67
2018-03-25T09:06:38.268Z,6.68
2018-03-25T09:07:38.284Z,6.71
2018-03-25T09:08:38.260Z,6.75
2018-03-25T09:09:38.241Z,6.77
2018-03-25T09:10:38.256Z,6.84
2018-03-25T09:11:38.268Z,6.92
2018-03-25T09:12:38.313Z,6.98
2018-03-25T09:13:38.262Z,6.99
2018-03-25T09:14:38.355Z,7.03
2018-03-25T09:15:38.262Z,7.09
2018-03-25T09:16:38.614Z,7.18
2018-03-25T09:17:38.287Z,7.23
2018-03-25T09:18:38.300Z,7.19
2018-03-25T09:19:38.289Z,7.23
2018-03-25T09:20:38.293Z,7.33
2018-03-25T09:21:38.313Z,7.4
2018-03-25T09:22:38.289Z,7.39
2018-03-25T09:23:38.307Z,7.41
2018-03-25T09:24:38.336Z,7.37
2018-03-25T09:25:38.313Z,7.39
2018-03-25T09:26:38.313Z,7.33
2018-03-25T09:27:38.313Z,7.34
2018-03-25T09:28:38.344Z,7.39
2018-03-25T09:29:38.343Z,7.41
2018-03-25T09:30:38.325Z,7.37
2018-03-25T09:31:38.330Z,7.22
2018-03-25T09:32:38.334Z,7.2
2018-03-25T09:33:38.345Z,7.26
2018-03-25T09:34:38.368Z,7.33
2018-03-25T09:35:38.360Z,7.37
2018-03-25T09:36:38.350Z,7.47
2018-03-25T09:37:38.353Z,7.51
2018-03-25T09:38:38.372Z,7.58
2018-03-25T09:39:38.368Z,7.62
2018-03-25T09:40:38.360Z,7.69
2018-03-25T09:41:38.367Z,7.82
2018-03-25T09:42:38.363Z,7.91
2018-03-25T09:43:38.357Z,7.92
2018-03-25T09:44:38.401Z,7.95
2018-03-25T09:45:38.414Z,7.98
2018-03-25T09:46:38.376Z,8.01
2018-03-25T09:47:38.386Z,8.03
2018-03-25T09:48:38.452Z,8.05
2018-03-25T09:49:38.413Z,8.03
2018-03-25T09:50:38.404Z,8.01
2018-03-25T09:51:38.408Z,8.05
2018-03-25T09:52:38.521Z,8.1
2018-03-25T09:53:38.421Z,8.21
2018-03-25T09:54:38.437Z,8.19
2018-03-25T09:55:38.423Z,8.24
2018-03-25T09:56:38.450Z,8.29
2018-03-25T09:57:38.427Z,8.34
2018-03-25T09:58:38.583Z,8.37
2018-03-25T09:59:38.445Z,8.44
2018-03-25T10:00:38.459Z,8.48
2018-03-25T10:01:38.435Z,8.52
2018-03-25T10:02:38.461Z,8.64
2018-03-25T10:03:38.451Z,8.71
2018-03-25T10:04:38.619Z,8.74
2018-03-25T10:05:38.443Z,8.79
2018-03-25T10:06:38.457Z,8.83
2018-03-25T10:07:38.471Z,8.88
2018-03-25T10:08:38.477Z,8.95
2018-03-25T10:09:38.487Z,9.02
2018-03-25T10:10:38.478Z,8.99
2018-03-25T10:11:38.477Z,9
2018-03-25T10:12:38.478Z,8.95
2018-03-25T10:13:38.489Z,8.88
2018-03-25T10:14:38.540Z,8.92
2018-03-25T10:15:38.497Z,8.96
2018-03-25T10:16:38.497Z,9.02
2018-03-25T10:17:38.514Z,9.14
2018-03-25T10:18:38.510Z,9.23
2018-03-25T10:19:38.551Z,9.29
2018-03-25T10:20:38.515Z,9.29
2018-03-25T10:21:38.544Z,9.3
2018-03-25T10:22:38.551Z,9.37
2018-03-25T10:23:38.537Z,9.42
2018-03-25T10:24:38.600Z,9.35
2018-03-25T10:25:38.561Z,9.33
2018-03-25T10:26:38.552Z,9.38
2018-03-25T10:27:38.833Z,9.31
2018-03-25T10:28:38.568Z,9.37
2018-03-25T10:29:38.566Z,9.44
2018-03-25T10:30:38.603Z,9.55
2018-03-25T10:31:38.554Z,9.61
2018-03-25T10:32:38.569Z,9.73
2018-03-25T10:33:38.563Z,9.85
2018-03-25T10:34:38.566Z,9.94
2018-03-25T10:35:38.609Z,10.04
2018-03-25T10:36:38.578Z,10.06
2018-03-25T10:37:38.577Z,10.14
2018-03-25T10:38:38.591Z,10.17
2018-03-25T10:39:38.636Z,10.24
2018-03-25T10:40:38.616Z,10.27
2018-03-25T10:41:38.884Z,10.27
2018-03-25T10:42:38.615Z,10.27
2018-03-25T10:43:38.609Z,10.23
2018-03-25T10:44:38.648Z,10.19
2018-03-25T10:45:38.619Z,10.16
2018-03-25T10:46:38.668Z,10.11
2018-03-25T10:47:38.617Z,10.16
2018-03-25T10:48:38.624Z,10.23
2018-03-25T10:49:38.695Z,10.27
2018-03-25T10:50:38.613Z,10.19
2018-03-25T10:51:38.657Z,10.16
2018-03-25T10:52:38.626Z,10.06
2018-03-25T10:53:38.630Z,10.04
2018-03-25T10:54:38.639Z,10.14
2018-03-25T10:55:38.653Z,10.28
2018-03-25T10:56:38.697Z,10.24
2018-03-25T10:57:38.672Z,10.27
2018-03-25T10:58:38.653Z,10.27
2018-03-25T10:59:38.671Z,10.24
2018-03-25T11:00:38.649Z,10.3
2018-03-25T11:01:38.693Z,10.39
2018-03-25T11:02:38.669Z,10.42
2018-03-25T11:03:38.671Z,10.44
2018-03-25T11:04:38.726Z,10.47
2018-03-25T11:05:38.673Z,10.56
2018-03-25T11:06:38.694Z,10.53
2018-03-25T11:07:38.722Z,10.55
2018-03-25T11:08:38.690Z,10.58
2018-03-25T11:09:38.754Z,10.71
2018-03-25T11:10:38.708Z,10.83
2018-03-25T11:11:38.692Z,10.8
2018-03-25T11:12:38.715Z,10.78
2018-03-25T11:13:38.718Z,10.86
2018-03-25T11:14:38.701Z,10.96
2018-03-25T11:15:38.700Z,10.9
2018-03-25T11:16:38.738Z,10.78
2018-03-25T11:17:38.734Z,10.87
2018-03-25T11:18:38.689Z,10.96
2018-03-25T11:19:38.697Z,11
2018-03-25T11:20:38.697Z,11.11
2018-03-25T11:21:38.733Z,11.11
2018-03-25T11:22:38.840Z,11.17
2018-03-25T11:23:38.726Z,11.28
2018-03-25T11:24:38.955Z,11.31
2018-03-25T11:25:38.728Z,11.38
2018-03-25T11:26:38.723Z,11.41
2018-03-25T11:27:38.746Z,11.25
2018-03-25T11:28:38.758Z,11.3
2018-03-25T11:29:38.732Z,11.41
2018-03-25T11:30:38.759Z,11.39
2018-03-25T11:31:38.765Z,11.49
2018-03-25T11:32:39.041Z,11.45
2018-03-25T11:33:38.742Z,11.49
2018-03-25T11:34:38.792Z,11.32
2018-03-25T11:35:38.776Z,11.17
2018-03-25T11:36:38.762Z,11.14
2018-03-25T11:37:38.784Z,11.1
2018-03-25T11:38:38.818Z,11.22
2018-03-25T11:39:38.847Z,11.38
2018-03-25T11:40:38.772Z,11.51
2018-03-25T11:41:38.789Z,11.65
2018-03-25T11:42:38.876Z,11.69
2018-03-25T11:43:38.892Z,11.68
2018-03-25T11:44:38.889Z,11.68
2018-03-25T11:45:38.800Z,11.65
2018-03-25T11:46:38.791Z,11.69
2018-03-25T11:47:38.809Z,11.68
2018-03-25T11:48:38.852Z,11.49
2018-03-25T11:49:38.818Z,11.55
2018-03-25T11:50:38.817Z,11.7
2018-03-25T11:51:38.806Z,11.83
2018-03-25T11:52:38.813Z,11.92
2018-03-25T11:53:38.814Z,11.97
2018-03-25T11:54:38.969Z,12.08
2018-03-25T11:55:38.822Z,12.14
2018-03-25T11:56:38.819Z,12.21
2018-03-25T11:57:38.827Z,12.13
2018-03-25T11:58:38.833Z,12.08
2018-03-25T11:59:38.914Z,12.13
2018-03-25T12:00:38.823Z,12.17
2018-03-25T12:01:38.864Z,12.23
2018-03-25T12:02:38.974Z,12.27
2018-03-25T12:03:38.839Z,12.25
2018-03-25T12:04:38.847Z,12.05
2018-03-25T12:05:38.865Z,11.89
2018-03-25T12:06:38.870Z,11.77
2018-03-25T12:07:38.880Z,11.93
2018-03-25T12:08:38.880Z,12.04
2018-03-25T12:09:39.008Z,12.29
2018-03-25T12:10:38.915Z,12.42
2018-03-25T12:11:38.876Z,12.62
2018-03-25T12:12:38.997Z,12.69
2018-03-25T12:13:38.889Z,12.8
2018-03-25T12:14:38.903Z,12.8
2018-03-25T12:15:38.882Z,12.73
2018-03-25T12:16:38.897Z,12.73
2018-03-25T12:17:39.169Z,12.55
2018-03-25T12:18:38.906Z,12.53
2018-03-25T12:19:39.025Z,12.46
2018-03-25T12:20:38.967Z,12.32
2018-03-25T12:21:39.009Z,12.24
2018-03-25T12:22:38.938Z,12.39
2018-03-25T12:23:38.914Z,12.42
2018-03-25T12:24:38.922Z,12.49
2018-03-25T12:25:38.915Z,12.62
2018-03-25T12:26:38.925Z,12.76
2018-03-25T12:27:38.988Z,12.87
2018-03-25T12:28:38.938Z,12.93
2018-03-25T12:29:38.942Z,13.06
2018-03-25T12:30:38.949Z,13.17
2018-03-25T12:31:38.974Z,13.27
2018-03-25T12:32:38.937Z,13.31
2018-03-25T12:33:38.970Z,13.39
2018-03-25T12:34:38.941Z,13.32
2018-03-25T12:35:38.937Z,13.35
2018-03-25T12:36:38.949Z,13.39
2018-03-25T12:37:38.948Z,13.28
2018-03-25T12:38:39.344Z,13.06
2018-03-25T12:39:38.966Z,13.03
2018-03-25T12:40:38.954Z,12.88
2018-03-25T12:41:38.980Z,13.01
2018-03-25T12:42:38.972Z,13.01
2018-03-25T12:43:38.999Z,13.17
2018-03-25T12:44:39.009Z,13.27
2018-03-25T12:45:38.985Z,13.25
2018-03-25T12:46:38.979Z,13.08
2018-03-25T12:47:38.998Z,13.24
2018-03-25T12:48:39.016Z,13.36
2018-03-25T12:49:38.998Z,13.27
2018-03-25T12:50:39.006Z,13.27
2018-03-25T12:51:38.992Z,13.27
2018-03-25T12:52:38.999Z,13.36
2018-03-25T12:53:39.206Z,13.38
2018-03-25T12:54:39.016Z,13.35
2018-03-25T12:55:39.031Z,13.25
2018-03-25T12:56:39.000Z,13.32
2018-03-25T12:57:39.018Z,13.34
2018-03-25T12:58:39.053Z,13.34
2018-03-25T12:59:39.023Z,13.29
2018-03-25T13:00:39.097Z,13.35
2018-03-25T13:01:39.174Z,13.41
2018-03-25T13:02:39.030Z,13.42
2018-03-25T13:03:39.050Z,13.46
2018-03-25T13:04:39.082Z,13.57
2018-03-25T13:05:39.029Z,13.7
2018-03-25T13:06:39.047Z,13.77
2018-03-25T13:07:39.036Z,13.84
2018-03-25T13:08:39.052Z,13.86
2018-03-25T13:09:39.165Z,13.93
2018-03-25T13:10:39.050Z,14
2018-03-25T13:11:39.094Z,14.1
2018-03-25T13:12:39.058Z,14.11
2018-03-25T13:13:39.057Z,14.15
2018-03-25T13:14:39.075Z,14.21
2018-03-25T13:15:39.107Z,14.15
2018-03-25T13:16:39.142Z,14.14
2018-03-25T13:17:39.075Z,14.12
2018-03-25T13:18:39.094Z,14.22